createdAt,value
2022-11-09T00:00:24.852Z,100285.56
2022-11-09T00:02:51.140Z,100283.53
2022-11-09T00:05:17.449Z,100282.34
2022-11-09T00:07:43.732Z,100282.56
2022-11-09T00:10:10.186Z,100285.25
2022-11-09T00:12:36.573Z,100280.38
2022-11-09T00:15:04.583Z,100277.06
2022-11-09T00:17:30.941Z,100277.06
2022-11-09T00:19:57.217Z,100277.81
2022-11-09T00:22:23.519Z,100278.47
2022-11-09T00:24:49.864Z,100274.16
2022-11-09T00:27:17.794Z,100277.06
2022-11-09T00:29:44.269Z,100271.25
2022-11-09T00:32:11.901Z,100273.94
2022-11-09T00:34:38.197Z,100277.00
2022-11-09T00:37:04.486Z,100282.72
2022-11-09T00:39:30.790Z,100279.25
2022-11-09T00:41:57.055Z,100275.81
2022-11-09T00:44:23.341Z,100280.91
2022-11-09T00:46:49.603Z,100279.72
2022-11-09T00:49:17.226Z,100283.22
2022-11-09T00:51:43.527Z,100281.38
2022-11-09T00:54:09.935Z,100284.41
2022-11-09T00:56:36.235Z,100284.81
2022-11-09T00:59:02.532Z,100292.19
2022-11-09T01:01:28.917Z,100293.19
2022-11-09T01:03:55.211Z,100291.38
2022-11-09T01:06:24.121Z,100292.84
2022-11-09T01:08:50.587Z,100286.22
2022-11-09T01:11:18.294Z,100284.19
2022-11-09T01:13:44.805Z,100286.06
2022-11-09T01:16:12.407Z,100300.63
2022-11-09T01:18:39.098Z,100290.72
2022-11-09T01:21:06.057Z,100296.25
2022-11-09T01:23:33.891Z,100297.66
2022-11-09T01:26:00.289Z,100306.09
2022-11-09T01:28:26.860Z,100305.84
2022-11-09T01:30:53.547Z,100302.53
2022-11-09T01:33:19.994Z,100309.25
2022-11-09T01:35:46.495Z,100313.41
2022-11-09T01:38:12.793Z,100321.41
2022-11-09T01:40:40.694Z,100304.75
2022-11-09T01:43:14.159Z,100308.34
2022-11-09T01:45:41.109Z,100307.50
2022-11-09T01:48:11.585Z,100294.41
2022-11-09T01:50:41.342Z,100294.22
2022-11-09T01:53:09.869Z,100293.25
2022-11-09T01:55:36.808Z,100301.25
2022-11-09T01:58:06.094Z,100305.16
2022-11-09T02:00:33.834Z,100307.06
2022-11-09T02:03:02.388Z,100312.03
2022-11-09T02:05:30.879Z,100315.13
2022-11-09T02:07:57.942Z,100303.25
2022-11-09T02:10:26.784Z,100310.19
2022-11-09T02:12:53.333Z,100324.56
2022-11-09T02:15:21.803Z,100324.75
2022-11-09T02:17:50.124Z,100319.59
2022-11-09T02:20:18.130Z,100313.78
2022-11-09T02:22:44.855Z,100324.09
2022-11-09T02:25:12.623Z,100319.13
2022-11-09T02:27:39.563Z,100309.03
2022-11-09T02:30:06.490Z,100311.88
2022-11-09T02:32:33.023Z,100315.28
2022-11-09T02:34:59.365Z,100315.41
2022-11-09T02:37:28.278Z,100319.94
2022-11-09T02:39:55.053Z,100326.47
2022-11-09T02:42:21.951Z,100309.56
2022-11-09T02:44:49.460Z,100311.59
2022-11-09T02:47:15.765Z,100310.94
2022-11-09T02:49:42.062Z,100314.19
2022-11-09T02:52:08.443Z,100322.56
2022-11-09T02:54:36.070Z,100316.41
2022-11-09T02:57:02.381Z,100317.81
2022-11-09T02:59:28.673Z,100313.19
2022-11-09T03:01:54.990Z,100320.38
2022-11-09T03:04:21.314Z,100320.28
2022-11-09T03:06:47.672Z,100321.94
2022-11-09T03:09:14.027Z,100323.16
2022-11-09T03:11:42.314Z,100327.66
2022-11-09T03:14:08.632Z,100317.63
2022-11-09T03:16:35.115Z,100319.47
2022-11-09T03:19:01.434Z,100323.16
2022-11-09T03:21:28.196Z,100321.31
2022-11-09T03:23:54.754Z,100322.69
2022-11-09T03:26:21.350Z,100311.19
2022-11-09T03:28:48.977Z,100309.16
2022-11-09T03:31:15.292Z,100311.19
2022-11-09T03:33:41.852Z,100312.84
2022-11-09T03:36:08.351Z,100330.97
2022-11-09T03:38:34.651Z,100340.81
2022-11-09T03:41:01.424Z,100346.13
2022-11-09T03:43:27.960Z,100348.22
2022-11-09T03:45:56.002Z,100344.13
2022-11-09T03:48:22.562Z,100352.31
2022-11-09T03:50:48.865Z,100355.50
2022-11-09T03:53:15.135Z,100358.00
2022-11-09T03:55:41.581Z,100368.84
2022-11-09T03:58:09.329Z,100375.00
2022-11-09T04:00:35.771Z,100374.72
2022-11-09T04:03:03.479Z,100384.38
2022-11-09T04:05:29.772Z,100382.66
2022-11-09T04:07:56.813Z,100373.72
2022-11-09T04:10:24.103Z,100377.56
2022-11-09T04:12:50.397Z,100380.47
2022-11-09T04:15:16.833Z,100378.22
2022-11-09T04:17:43.447Z,100375.44
2022-11-09T04:20:11.449Z,100375.19
2022-11-09T04:22:37.998Z,100377.88
2022-11-09T04:25:04.683Z,100381.72
2022-11-09T04:27:30.979Z,100381.06
2022-11-09T04:29:57.369Z,100393.31
2022-11-09T04:32:23.796Z,100394.41
2022-11-09T04:34:50.084Z,100398.53
2022-11-09T04:37:17.708Z,100393.28
2022-11-09T04:39:43.983Z,100392.44
2022-11-09T04:42:10.271Z,100399.34
2022-11-09T04:44:36.593Z,100402.19
2022-11-09T04:47:02.901Z,100409.53
2022-11-09T04:49:29.183Z,100399.22
2022-11-09T04:51:55.463Z,100397.56
2022-11-09T04:54:23.102Z,100401.81
2022-11-09T04:56:49.485Z,100406.50
2022-11-09T04:59:15.763Z,100411.66
2022-11-09T05:01:42.096Z,100411.72
2022-11-09T05:04:08.419Z,100410.72
2022-11-09T05:06:34.867Z,100422.56
2022-11-09T05:09:02.166Z,100421.72
2022-11-09T05:11:30.068Z,100427.91
2022-11-09T05:13:56.354Z,100421.72
2022-11-09T05:16:22.693Z,100427.06
2022-11-09T05:18:49.314Z,100412.72
2022-11-09T05:21:15.883Z,100404.44
2022-11-09T05:23:42.407Z,100409.41
2022-11-09T05:26:08.687Z,100408.94
2022-11-09T05:28:36.316Z,100415.66
2022-11-09T05:31:02.843Z,100406.34
2022-11-09T05:33:29.150Z,100410.16
2022-11-09T05:35:55.529Z,100402.69
2022-11-09T05:38:21.839Z,100407.72
2022-11-09T05:40:48.143Z,100412.41
2022-11-09T05:43:14.417Z,100412.75
2022-11-09T05:45:43.937Z,100417.44
2022-11-09T05:48:10.887Z,100407.78
2022-11-09T05:50:37.582Z,100407.13
2022-11-09T05:53:03.942Z,100405.28
2022-11-09T05:55:30.322Z,100408.63
2022-11-09T05:57:56.636Z,100400.97
2022-11-09T06:00:23.053Z,100406.28
2022-11-09T06:02:50.950Z,100398.88
2022-11-09T06:05:17.320Z,100406.84
2022-11-09T06:07:43.612Z,100408.50
2022-11-09T06:10:10.053Z,100406.38
2022-11-09T06:12:36.358Z,100409.59
2022-11-09T06:15:02.785Z,100408.09
2022-11-09T06:17:29.083Z,100399.28
2022-11-09T06:19:56.683Z,100409.75
2022-11-09T06:22:23.051Z,100408.28
2022-11-09T06:24:49.388Z,100418.63
2022-11-09T06:27:15.682Z,100411.47
2022-11-09T06:29:41.957Z,100415.69
2022-11-09T06:32:08.259Z,100422.19
2022-11-09T06:34:34.542Z,100420.16
2022-11-09T06:37:02.174Z,100427.50
2022-11-09T06:39:28.489Z,100426.19
2022-11-09T06:41:54.786Z,100430.88
2022-11-09T06:44:21.068Z,100435.38
2022-11-09T06:46:47.349Z,100432.88
2022-11-09T06:49:13.672Z,100440.22
2022-11-09T06:51:40.015Z,100437.25
2022-11-09T06:54:07.655Z,100439.28
2022-11-09T06:56:33.945Z,100438.25
2022-11-09T06:59:00.239Z,100452.75
2022-11-09T07:01:27.680Z,100451.53
2022-11-09T07:03:54.018Z,100459.53
2022-11-09T07:06:20.678Z,100449.09
2022-11-09T07:08:47.166Z,100451.75
2022-11-09T07:11:15.213Z,100458.19
2022-11-09T07:13:41.659Z,100453.59
2022-11-09T07:16:08.370Z,100455.03
2022-11-09T07:18:34.637Z,100467.19
2022-11-09T07:21:03.860Z,100466.72
2022-11-09T07:23:30.155Z,100471.84
2022-11-09T07:25:57.923Z,100463.84
2022-11-09T07:28:25.546Z,100469.56
2022-11-09T07:30:51.855Z,100478.16
2022-11-09T07:33:18.853Z,100471.50
2022-11-09T07:35:45.470Z,100469.00
2022-11-09T07:38:11.968Z,100473.13
2022-11-09T07:40:38.322Z,100469.78
2022-11-09T07:43:05.845Z,100472.94
2022-11-09T07:45:34.344Z,100474.78
2022-11-09T07:48:01.854Z,100480.41
2022-11-09T07:50:28.962Z,100480.41
2022-11-09T07:52:55.445Z,100480.88
2022-11-09T07:55:21.778Z,100478.03
2022-11-09T07:57:48.098Z,100481.03
2022-11-09T08:00:16.926Z,100485.63
2022-11-09T08:02:49.808Z,100484.63
2022-11-09T08:05:16.390Z,100495.94
2022-11-09T08:07:42.675Z,100499.91
2022-11-09T08:10:09.457Z,100495.22
2022-11-09T08:12:37.291Z,100498.50
2022-11-09T08:15:04.143Z,100501.34
2022-11-09T08:17:30.985Z,100495.19
2022-11-09T08:19:58.639Z,100490.78
2022-11-09T08:22:24.925Z,100495.63
2022-11-09T08:24:51.218Z,100501.94
2022-11-09T08:27:17.517Z,100505.06
2022-11-09T08:29:44.599Z,100514.09
2022-11-09T08:32:10.875Z,100516.03
2022-11-09T08:34:37.190Z,100514.69
2022-11-09T08:37:04.829Z,100514.47
2022-11-09T08:39:31.173Z,100520.94
2022-11-09T08:41:57.468Z,100524.09
2022-11-09T08:44:23.746Z,100528.09
2022-11-09T08:46:50.051Z,100520.94
2022-11-09T08:49:16.369Z,100525.44
2022-11-09T08:51:42.659Z,100525.78
2022-11-09T08:54:10.283Z,100524.59
2022-11-09T08:56:36.566Z,100526.09
2022-11-09T08:59:02.867Z,100522.03
2022-11-09T09:01:29.247Z,100528.75
2022-11-09T09:03:55.544Z,100527.75
2022-11-09T09:06:22.642Z,100530.59
2022-11-09T09:08:51.008Z,100533.53
2022-11-09T09:11:18.746Z,100536.88
2022-11-09T09:13:45.046Z,100552.34
2022-11-09T09:16:12.476Z,100528.44
2022-11-09T09:18:38.794Z,100537.75
2022-11-09T09:21:05.843Z,100539.06
2022-11-09T09:23:32.142Z,100534.72
2022-11-09T09:25:58.800Z,100535.69
2022-11-09T09:28:26.561Z,100543.16
2022-11-09T09:30:52.858Z,100540.41
2022-11-09T09:33:19.162Z,100544.13
2022-11-09T09:35:45.459Z,100538.69
2022-11-09T09:38:11.771Z,100549.09
2022-11-09T09:40:40.848Z,100539.44
2022-11-09T09:43:12.487Z,100549.38
2022-11-09T09:45:48.807Z,100547.66
2022-11-09T09:48:19.150Z,100557.50
2022-11-09T09:50:48.909Z,100556.66
2022-11-09T09:53:24.106Z,100552.34
2022-11-09T09:55:53.808Z,100561.72
2022-11-09T09:58:23.716Z,100558.69
2022-11-09T10:00:52.155Z,100562.63
2022-11-09T10:03:19.610Z,100575.16
2022-11-09T10:05:48.363Z,100580.59
2022-11-09T10:08:21.254Z,100583.81
2022-11-09T10:10:54.184Z,100581.97
2022-11-09T10:13:34.176Z,100584.72
2022-11-09T10:16:06.907Z,100585.66
2022-11-09T10:18:37.788Z,100584.91
2022-11-09T10:21:15.789Z,100586.13
2022-11-09T10:23:48.348Z,100588.59
2022-11-09T10:26:17.372Z,100582.69
2022-11-09T10:29:14.336Z,100582.69
2022-11-09T10:31:34.101Z,100577.06
2022-11-09T10:34:03.366Z,100576.84
2022-11-09T10:36:33.181Z,100575.94
2022-11-09T10:39:00.959Z,100578.03
2022-11-09T10:41:29.743Z,100577.59
2022-11-09T10:43:56.049Z,100587.06
2022-11-09T10:46:22.467Z,100589.16
2022-11-09T10:48:50.708Z,100584.34
2022-11-09T10:51:31.342Z,100584.72
2022-11-09T10:54:12.519Z,100601.78
2022-11-09T10:57:04.860Z,100593.19
2022-11-09T10:59:43.482Z,100595.03
2022-11-09T11:02:38.927Z,100596.25
2022-11-09T11:05:26.165Z,100595.41
2022-11-09T11:07:53.838Z,100593.38
2022-11-09T11:10:20.845Z,100596.56
2022-11-09T11:12:52.655Z,100606.88
2022-11-09T11:15:22.349Z,100596.88
2022-11-09T11:17:48.725Z,100617.63
2022-11-09T11:20:25.591Z,100612.56
2022-11-09T11:23:05.477Z,100613.38
2022-11-09T11:25:31.877Z,100614.09
2022-11-09T11:28:03.172Z,100623.06
2022-11-09T11:30:32.718Z,100617.31
2022-11-09T11:32:59.040Z,100618.44
2022-11-09T11:35:31.027Z,100624.97
2022-11-09T11:38:05.182Z,100621.66
2022-11-09T11:40:33.337Z,100615.38
2022-11-09T11:43:18.862Z,100614.97
2022-11-09T11:45:49.450Z,100624.06
2022-11-09T11:48:23.683Z,100626.97
2022-11-09T11:50:51.672Z,100618.28
2022-11-09T11:53:25.844Z,100629.13
2022-11-09T11:56:02.468Z,100627.94
2022-11-09T11:58:34.910Z,100631.63
2022-11-09T12:01:06.231Z,100634.28
2022-11-09T12:03:50.756Z,100634.28
2022-11-09T12:06:23.559Z,100628.25
2022-11-09T12:09:04.764Z,100628.84
2022-11-09T12:11:38.895Z,100627.13
2022-11-09T12:14:11.327Z,100627.84
2022-11-09T12:16:41.532Z,100623.06
2022-11-09T12:19:16.820Z,100636.16
2022-11-09T12:21:47.625Z,100637.00
2022-11-09T12:24:19.212Z,100633.50
2022-11-09T12:27:10.880Z,100640.88
2022-11-09T12:29:46.832Z,100638.78
2022-11-09T12:32:21.370Z,100643.34
2022-11-09T12:34:51.322Z,100643.00
2022-11-09T12:37:20.200Z,100641.97
2022-11-09T12:39:47.270Z,100644.38
2022-11-09T12:42:18.319Z,100642.09
2022-11-09T12:44:46.830Z,100639.50
2022-11-09T12:47:15.573Z,100635.19
2022-11-09T12:49:44.049Z,100633.78
2022-11-09T12:52:11.898Z,100649.59
2022-11-09T12:54:41.055Z,100636.59
2022-11-09T12:57:09.110Z,100647.09
2022-11-09T12:59:44.282Z,100651.22
2022-11-09T13:02:19.547Z,100646.56
2022-11-09T13:04:54.196Z,100655.88
2022-11-09T13:07:31.385Z,100644.41
2022-11-09T13:09:59.224Z,100657.16
2022-11-09T13:12:32.972Z,100665.88
2022-11-09T13:15:20.807Z,100664.88
2022-11-09T13:17:57.889Z,100656.66
2022-11-09T13:20:56.789Z,100662.84
2022-11-09T13:23:41.813Z,100671.03
2022-11-09T13:26:21.065Z,100676.28
2022-11-09T13:29:08.314Z,100679.16
2022-11-09T13:31:53.167Z,100682.25
2022-11-09T13:34:42.313Z,100685.84
2022-11-09T13:37:27.513Z,100682.03
2022-11-09T13:39:53.812Z,100684.91
2022-11-09T13:42:27.586Z,100687.38
2022-11-09T13:44:54.084Z,100691.91
2022-11-09T13:47:21.734Z,100688.69
2022-11-09T13:49:50.167Z,100695.69
2022-11-09T13:52:49.369Z,100694.03
2022-11-09T13:55:18.203Z,100697.25
2022-11-09T13:57:45.432Z,100697.63
2022-11-09T14:00:15.263Z,100699.22
2022-11-09T14:02:51.559Z,100702.72
2022-11-09T14:05:27.043Z,100707.22
2022-11-09T14:07:54.224Z,100709.91
2022-11-09T14:10:23.771Z,100711.56
2022-11-09T14:13:06.951Z,100721.78
2022-11-09T14:15:39.702Z,100717.50
2022-11-09T14:18:12.302Z,100719.06
2022-11-09T14:20:41.589Z,100720.09
2022-11-09T14:23:15.116Z,100720.63
2022-11-09T14:25:41.493Z,100718.31
2022-11-09T14:28:19.333Z,100725.69
2022-11-09T14:30:45.992Z,100720.69
2022-11-09T14:33:19.821Z,100726.19
2022-11-09T14:35:47.564Z,100737.25
2022-11-09T14:38:16.035Z,100739.44
2022-11-09T14:40:44.420Z,100743.28
2022-11-09T14:43:17.655Z,100746.50
2022-11-09T14:45:47.281Z,100755.88
2022-11-09T14:48:17.036Z,100760.66
2022-11-09T14:50:43.362Z,100765.53
2022-11-09T14:53:14.925Z,100763.38
2022-11-09T14:55:41.333Z,100765.41
2022-11-09T14:58:11.077Z,100777.91
2022-11-09T15:00:40.728Z,100772.94
2022-11-09T15:03:24.908Z,100760.22
2022-11-09T15:06:02.474Z,100777.22
2022-11-09T15:08:30.403Z,100778.41
2022-11-09T15:10:57.029Z,100777.50
2022-11-09T15:13:28.931Z,100778.72
2022-11-09T15:15:55.390Z,100785.59
2022-11-09T15:18:27.792Z,100782.41
2022-11-09T15:21:14.292Z,100789.16
2022-11-09T15:23:43.488Z,100796.91
2022-11-09T15:26:33.869Z,100790.66
2022-11-09T15:29:00.449Z,100791.75
2022-11-09T15:31:26.834Z,100792.75
2022-11-09T15:33:54.080Z,100800.59
2022-11-09T15:36:22.478Z,100802.09
2022-11-09T15:38:56.822Z,100808.97
2022-11-09T15:41:23.880Z,100805.97
2022-11-09T15:43:50.239Z,100804.66
2022-11-09T15:46:17.773Z,100815.31
2022-11-09T15:48:46.061Z,100810.34
2022-11-09T15:51:12.971Z,100816.19
2022-11-09T15:53:39.547Z,100816.34
2022-11-09T15:56:10.517Z,100814.69
2022-11-09T15:58:36.817Z,100817.56
2022-11-09T16:01:03.152Z,100828.38
2022-11-09T16:03:29.466Z,100832.88
2022-11-09T16:05:55.814Z,100842.22
2022-11-09T16:08:22.517Z,100841.72
2022-11-09T16:10:49.235Z,100836.72
2022-11-09T16:13:16.914Z,100834.41
2022-11-09T16:15:43.195Z,100845.75
2022-11-09T16:18:10.794Z,100847.56
2022-11-09T16:20:37.202Z,100847.59
2022-11-09T16:23:03.516Z,100847.75
2022-11-09T16:25:29.865Z,100850.94
2022-11-09T16:27:56.176Z,100859.41
2022-11-09T16:30:23.830Z,100872.22
2022-11-09T16:32:50.135Z,100873.56
2022-11-09T16:35:27.389Z,100882.03
2022-11-09T16:37:54.260Z,100893.03
2022-11-09T16:40:21.060Z,100895.34
2022-11-09T16:42:47.905Z,100896.34
2022-11-09T16:45:15.962Z,100901.16
2022-11-09T16:47:45.844Z,100908.47
2022-11-09T16:50:12.206Z,100905.34
2022-11-09T16:52:38.508Z,100911.13
2022-11-09T16:55:05.252Z,100915.47
2022-11-09T16:57:31.539Z,100913.78
2022-11-09T16:59:57.811Z,100914.13
2022-11-09T17:02:24.619Z,100923.13
2022-11-09T17:04:52.840Z,100929.59
2022-11-09T17:07:19.534Z,100932.94
2022-11-09T17:09:45.868Z,100937.75
2022-11-09T17:12:12.169Z,100946.19
2022-11-09T17:14:38.458Z,100942.84
2022-11-09T17:17:04.728Z,100950.19
2022-11-09T17:19:31.114Z,100961.31
2022-11-09T17:21:58.788Z,100968.47
2022-11-09T17:24:25.228Z,100967.91
2022-11-09T17:26:51.520Z,100970.06
2022-11-09T17:29:17.982Z,100974.56
2022-11-09T17:31:44.317Z,100986.34
2022-11-09T17:34:10.714Z,100991.31
2022-11-09T17:37:02.528Z,100995.13
2022-11-09T17:39:24.637Z,100996.13
2022-11-09T17:41:50.943Z,101003.28
2022-11-09T17:44:17.334Z,101011.56
2022-11-09T17:46:43.639Z,101006.41
2022-11-09T17:49:10.635Z,101017.19
2022-11-09T17:51:37.233Z,101017.38
2022-11-09T17:54:03.957Z,101022.69
2022-11-09T17:56:32.663Z,101023.69
2022-11-09T17:58:58.935Z,101021.19
2022-11-09T18:01:25.255Z,101024.69
2022-11-09T18:03:51.606Z,101030.84
2022-11-09T18:06:19.123Z,101030.31
2022-11-09T18:08:45.688Z,101034.25
2022-11-09T18:11:12.602Z,101037.91
2022-11-09T18:13:40.642Z,101046.22
2022-11-09T18:16:07.091Z,101042.88
2022-11-09T18:18:33.391Z,101045.16
2022-11-09T18:21:04.693Z,101046.97
2022-11-09T18:23:30.972Z,101046.97
2022-11-09T18:25:57.398Z,101048.97
2022-11-09T18:28:23.859Z,101052.78
2022-11-09T18:30:51.486Z,101060.59
2022-11-09T18:33:18.354Z,101070.69
2022-11-09T18:35:44.639Z,101083.00
2022-11-09T18:38:13.179Z,101072.97
2022-11-09T18:40:39.820Z,101074.97
2022-11-09T18:43:06.108Z,101075.97
2022-11-09T18:45:32.396Z,101083.09
2022-11-09T18:48:00.070Z,101083.53
2022-11-09T18:50:26.386Z,101088.03
2022-11-09T18:52:52.677Z,101087.72
2022-11-09T18:55:19.001Z,101093.19
2022-11-09T18:57:45.320Z,101098.66
2022-11-09T19:00:12.289Z,101104.97
2022-11-09T19:02:38.575Z,101100.81
2022-11-09T19:05:06.629Z,101110.59
2022-11-09T19:07:32.909Z,101104.44
2022-11-09T19:09:59.193Z,101108.09
2022-11-09T19:12:25.490Z,101118.03
2022-11-09T19:14:51.767Z,101107.84
2022-11-09T19:17:18.073Z,101121.28
2022-11-09T19:19:44.976Z,101119.31
2022-11-09T19:22:15.016Z,101126.78
2022-11-09T19:24:41.381Z,101127.75
2022-11-09T19:27:07.712Z,101141.19
2022-11-09T19:29:34.026Z,101141.34
2022-11-09T19:32:00.335Z,101141.50
2022-11-09T19:34:26.674Z,101134.81
2022-11-09T19:36:53.053Z,101142.09
2022-11-09T19:39:20.721Z,101142.25
2022-11-09T19:41:47.011Z,101142.69
2022-11-09T19:44:13.362Z,101150.66
2022-11-09T19:46:39.801Z,101147.31
2022-11-09T19:49:06.126Z,101161.63
2022-11-09T19:51:32.628Z,101166.38
2022-11-09T19:53:59.525Z,101171.00
2022-11-09T19:56:28.389Z,101176.44
2022-11-09T19:58:55.431Z,101178.28
2022-11-09T20:01:22.229Z,101170.44
2022-11-09T20:03:48.911Z,101179.25
2022-11-09T20:06:15.300Z,101187.69
2022-11-09T20:08:41.695Z,101184.34
2022-11-09T20:11:08.930Z,101192.59
2022-11-09T20:13:37.247Z,101200.69
2022-11-09T20:16:04.087Z,101210.63
2022-11-09T20:18:30.485Z,101213.16
2022-11-09T20:20:56.758Z,101210.94
2022-11-09T20:23:23.072Z,101213.03
2022-11-09T20:25:49.370Z,101215.84
2022-11-09T20:28:15.660Z,101229.13
2022-11-09T20:30:43.284Z,101231.09
2022-11-09T20:33:11.664Z,101238.38
2022-11-09T20:35:40.667Z,101241.31
2022-11-09T20:38:09.242Z,101237.13
2022-11-09T20:40:35.534Z,101238.09
2022-11-09T20:43:01.831Z,101241.72
2022-11-09T20:45:28.110Z,101248.34
2022-11-09T20:48:10.509Z,101254.91
2022-11-09T20:50:42.024Z,101258.41
2022-11-09T20:53:08.328Z,101262.31
2022-11-09T20:55:35.988Z,101264.97
2022-11-09T20:58:02.283Z,101266.75
2022-11-09T21:00:28.577Z,101268.72
2022-11-09T21:02:56.190Z,101269.84
2022-11-09T21:05:22.479Z,101277.09
2022-11-09T21:07:48.823Z,101276.53
2022-11-09T21:10:15.185Z,101286.31
2022-11-09T21:12:41.466Z,101288.31
2022-11-09T21:15:10.915Z,101287.47
2022-11-09T21:17:37.188Z,101290.25
2022-11-09T21:20:05.413Z,101288.72
2022-11-09T21:22:31.678Z,101295.97
2022-11-09T21:24:57.963Z,101288.03
2022-11-09T21:27:24.268Z,101293.59
2022-11-09T21:29:50.546Z,101305.06
2022-11-09T21:32:17.545Z,101303.38
2022-11-09T21:34:43.877Z,101309.81
2022-11-09T21:37:11.835Z,101303.94
2022-11-09T21:39:38.131Z,101308.56
2022-11-09T21:42:04.679Z,101311.22
2022-11-09T21:44:31.768Z,101303.38
2022-11-09T21:46:58.553Z,101318.47
2022-11-09T21:49:24.869Z,101316.94
2022-11-09T21:51:51.179Z,101321.41
2022-11-09T21:54:18.832Z,101321.56
2022-11-09T21:56:46.623Z,101322.53
2022-11-09T21:59:12.909Z,101323.50
2022-11-09T22:01:39.281Z,101327.97
2022-11-09T22:04:05.662Z,101325.59
2022-11-09T22:06:32.002Z,101321.25
2022-11-09T22:08:58.340Z,101321.41
2022-11-09T22:11:26.733Z,101337.16
2022-11-09T22:13:53.014Z,101336.31
2022-11-09T22:16:19.839Z,101331.72
2022-11-09T22:18:49.737Z,101331.88
2022-11-09T22:21:16.195Z,101338.97
2022-11-09T22:23:42.497Z,101331.31
2022-11-09T22:26:08.793Z,101331.59
2022-11-09T22:28:36.386Z,101335.22
2022-11-09T22:31:03.156Z,101339.41
2022-11-09T22:33:29.689Z,101347.63
2022-11-09T22:35:56.675Z,101347.78
2022-11-09T22:38:22.966Z,101361.88
2022-11-09T22:40:49.326Z,101356.84
2022-11-09T22:43:15.823Z,101356.84
2022-11-09T22:45:43.454Z,101372.91
2022-11-09T22:48:09.757Z,101377.38
2022-11-09T22:50:36.302Z,101377.63
2022-11-09T22:53:04.085Z,101381.25
2022-11-09T22:55:31.293Z,101390.06
2022-11-09T22:57:57.591Z,101392.84
2022-11-09T23:00:24.048Z,101387.69
2022-11-09T23:02:51.712Z,101391.44
2022-11-09T23:05:17.986Z,101402.19
2022-11-09T23:07:44.248Z,101398.00
2022-11-09T23:10:10.537Z,101400.06
2022-11-09T23:12:36.850Z,101400.19
2022-11-09T23:15:03.285Z,101415.28
2022-11-09T23:17:30.042Z,101407.59
2022-11-09T23:19:57.647Z,101416.53
2022-11-09T23:22:24.000Z,101412.19
2022-11-09T23:24:50.269Z,101422.81
2022-11-09T23:27:16.557Z,101422.09
2022-11-09T23:29:42.836Z,101425.72
2022-11-09T23:32:09.119Z,101432.81
2022-11-09T23:34:35.409Z,101438.25
2022-11-09T23:37:03.017Z,101439.22
2022-11-09T23:39:29.312Z,101439.22
2022-11-09T23:41:55.601Z,101441.03
2022-11-09T23:44:21.883Z,101442.84
2022-11-09T23:46:48.142Z,101450.81
2022-11-09T23:49:14.431Z,101447.47
2022-11-09T23:51:40.733Z,101443.00
2022-11-09T23:54:08.339Z,101459.88
2022-11-09T23:56:34.636Z,101467.00
2022-11-09T23:59:01.028Z,101470.63
